Stevinson, California
Current Conditions -  °F | °C
As of 2:45 PM on Friday 19 Dec 2014 (Local Time) from KMER Reporting Station
Overcast Overcast  
Wind Chill: 14°   Ceiling: 4000
Heat Index: 14°   Visibility: 7mi
Dew Point: 14°   Wind: 7mph
Humidity: 100%   Direction: 170°S
Pressure: 30.18"   Gusts: 17mph
Location:  37.33°N, 120.85°W
Report Text: KMER 192245Z 17006G15KT 7SM FEW015 OVC040 14/14 A3018
Loading
Personal Weather Stations






























Interactive Weather Map New forecast layout! Learn more

10-Day Weather Forecast

Advertisements
Track Severe Weather on mobile